メインページ
METAR-TAF:

METAR-TAF

空港 :

Brooks Field

マーシャル, ミシガン州, アメリカ合衆国

緯度: 42-15-04N, 経度: 084-57-20W, 海抜: 287m

現時点の気象観測

当レポートは24分前の18:37(UTC)に作成
南西の風 8kt、最大15ktの突風を伴う
気温 32°C
湿度 84%
気圧 1011 hPa
視程: 16.1km
高度2400ftの千切れ雲あり
高度3200ftの千切れ雲あり

METAR: KRMY 191837Z AUTO 22008G15KT 10SM BKN024 BKN032 32/29 A2986 RMK AO2 T03210290

時間: 15:01 (19:01 UTC)


TAF: 見つかりません

4,000以上の空港の気象観測と天気予報(METAR報とTAF報)

利用可能な観測所は地図上に黄色い丸と赤い丸で示す。

丸の上にカーソルを重ねると観測所名を参照できる。

次にクリックすると気象観測と天気予報を参照できる。

マップの切り替え:黒色「×」印の緑ボタンをクリックして拡大、「-」印の緑ボタンをクリックして縮小、緑色の三角印をクリックして隣りの地図に切り替え


METAR-TAF: